Terminal Aerodrome Forecast
Issued by NWS

Home | Current Version | Previous Version | Text Only | Print | Product List | Glossary On
Versions: 1 2 3 4 5 6 7 8 9 10 11 12 13 14 15 16 17 18 19 20 21 22 23 24 25 26 27 28 29 30 31 32 33 34 35 36 37 38 39 40 41 42 43 44 45 46 47 48 49 50
000
FTUS45 KBOU 222320
TAFAPA
TAF
KAPA 222320Z 2300/2324 34015KT P6SM SCT060 BKN100
     FM230100 33008KT P6SM FEW080 SCT120 SCT220
     FM230400 35006KT P6SM FEW120 SCT220
     FM230700 08006KT P6SM FEW220
     FM231100 15008KT P6SM SCT220
     FM231700 15012KT P6SM FEW120 SCT220
     FM232100 15012KT P6SM VCTS SCT070CB BKN150=

USA.gov is the U.S. government's official web portal to all federal, state and local government web resources and services.